sensor_id;sensor_type;location;lat;lon;timestamp;pressure;altitude;pressure_sealevel;temperature
68952;BMP180;56000;51.146;17.112;2023-04-30T00:00:40;100371.40;;;10.30
68952;BMP180;56000;51.146;17.112;2023-04-30T00:03:28;100376.00;;;10.30
68952;BMP180;56000;51.146;17.112;2023-04-30T00:05:57;100379.60;;;10.30
68952;BMP180;56000;51.146;17.112;2023-04-30T00:08:26;100381.80;;;10.30
68952;BMP180;56000;51.146;17.112;2023-04-30T00:10:55;100380.80;;;10.30
68952;BMP180;56000;51.146;17.112;2023-04-30T00:13:24;100384.00;;;10.30
68952;BMP180;56000;51.146;17.112;2023-04-30T00:15:53;100384.40;;;10.30
68952;BMP180;56000;51.146;17.112;2023-04-30T00:18:22;100384.20;;;10.30
68952;BMP180;56000;51.146;17.112;2023-04-30T00:20:51;100380.60;;;10.22
68952;BMP180;56000;51.146;17.112;2023-04-30T00:23:20;100380.20;;;10.22
68952;BMP180;56000;51.146;17.112;2023-04-30T00:25:49;100381.80;;;10.20
68952;BMP180;56000;51.146;17.112;2023-04-30T00:28:17;100385.80;;;10.20
68952;BMP180;56000;51.146;17.112;2023-04-30T00:30:46;100387.20;;;10.20
68952;BMP180;56000;51.146;17.112;2023-04-30T00:33:15;100392.80;;;10.20
68952;BMP180;56000;51.146;17.112;2023-04-30T00:35:43;100394.40;;;10.20
68952;BMP180;56000;51.146;17.112;2023-04-30T00:38:12;100397.80;;;10.20
68952;BMP180;56000;51.146;17.112;2023-04-30T00:40:41;100398.80;;;10.20
68952;BMP180;56000;51.146;17.112;2023-04-30T00:43:11;100403.40;;;10.14
68952;BMP180;56000;51.146;17.112;2023-04-30T00:45:39;100407.00;;;10.12
68952;BMP180;56000;51.146;17.112;2023-04-30T00:48:08;100410.00;;;10.10
68952;BMP180;56000;51.146;17.112;2023-04-30T00:50:37;100412.60;;;10.10
68952;BMP180;56000;51.146;17.112;2023-04-30T00:53:07;100414.60;;;10.10
68952;BMP180;56000;51.146;17.112;2023-04-30T00:55:36;100415.00;;;10.10
68952;BMP180;56000;51.146;17.112;2023-04-30T00:58:04;100414.60;;;10.10
68952;BMP180;56000;51.146;17.112;2023-04-30T01:00:33;100420.80;;;10.10
68952;BMP180;56000;51.146;17.112;2023-04-30T01:03:02;100422.00;;;10.08
68952;BMP180;56000;51.146;17.112;2023-04-30T01:05:31;100428.80;;;10.02
68952;BMP180;56000;51.146;17.112;2023-04-30T01:07:59;100428.60;;;10.00
68952;BMP180;56000;51.146;17.112;2023-04-30T01:10:31;100430.00;;;10.00
68952;BMP180;56000;51.146;17.112;2023-04-30T01:13:06;100429.80;;;10.00
68952;BMP180;56000;51.146;17.112;2023-04-30T01:15:40;100431.80;;;10.00
68952;BMP180;56000;51.146;17.112;2023-04-30T01:18:14;100428.40;;;10.00
68952;BMP180;56000;51.146;17.112;2023-04-30T01:20:49;100428.20;;;9.96
68952;BMP180;56000;51.146;17.112;2023-04-30T01:23:27;100429.20;;;9.92
68952;BMP180;56000;51.146;17.112;2023-04-30T01:26:09;100433.20;;;9.90
68952;BMP180;56000;51.146;17.112;2023-04-30T01:28:38;100433.60;;;9.90
68952;BMP180;56000;51.146;17.112;2023-04-30T01:31:13;100440.80;;;9.90
68952;BMP180;56000;51.146;17.112;2023-04-30T01:33:42;100439.40;;;9.90
68952;BMP180;56000;51.146;17.112;2023-04-30T01:36:37;100437.20;;;9.80
68952;BMP180;56000;51.146;17.112;2023-04-30T01:39:18;100441.60;;;9.80
68952;BMP180;56000;51.146;17.112;2023-04-30T01:41:52;100444.80;;;9.80
68952;BMP180;56000;51.146;17.112;2023-04-30T01:44:34;100443.60;;;9.80
68952;BMP180;56000;51.146;17.112;2023-04-30T01:47:11;100445.60;;;9.70
68952;BMP180;56000;51.146;17.112;2023-04-30T01:49:46;100446.20;;;9.70
68952;BMP180;56000;51.146;17.112;2023-04-30T01:52:24;100441.40;;;9.68
68952;BMP180;56000;51.146;17.112;2023-04-30T01:54:58;100443.00;;;9.60
68952;BMP180;56000;51.146;17.112;2023-04-30T01:57:31;100444.80;;;9.54
68952;BMP180;56000;51.146;17.112;2023-04-30T02:00:00;100447.40;;;9.50
68952;BMP180;56000;51.146;17.112;2023-04-30T02:02:29;100450.60;;;9.40
68952;BMP180;56000;51.146;17.112;2023-04-30T02:04:57;100456.20;;;9.38
68952;BMP180;56000;51.146;17.112;2023-04-30T02:07:31;100457.60;;;9.30
68952;BMP180;56000;51.146;17.112;2023-04-30T02:10:07;100457.00;;;9.20
68952;BMP180;56000;51.146;17.112;2023-04-30T02:12:36;100456.20;;;9.10
68952;BMP180;56000;51.146;17.112;2023-04-30T02:15:07;100463.60;;;9.10
68952;BMP180;56000;51.146;17.112;2023-04-30T02:17:35;100460.40;;;9.00
68952;BMP180;56000;51.146;17.112;2023-04-30T02:20:06;100468.20;;;8.96
68952;BMP180;56000;51.146;17.112;2023-04-30T02:22:35;100468.20;;;8.90
68952;BMP180;56000;51.146;17.112;2023-04-30T02:25:05;100468.00;;;8.80
68952;BMP180;56000;51.146;17.112;2023-04-30T02:27:35;100470.60;;;8.70
68952;BMP180;56000;51.146;17.112;2023-04-30T02:30:05;100471.40;;;8.70
68952;BMP180;56000;51.146;17.112;2023-04-30T02:32:33;100476.40;;;8.60
68952;BMP180;56000;51.146;17.112;2023-04-30T02:35:03;100471.40;;;8.58
68952;BMP180;56000;51.146;17.112;2023-04-30T02:37:31;100471.60;;;8.50
68952;BMP180;56000;51.146;17.112;2023-04-30T02:40:00;100470.80;;;8.40
68952;BMP180;56000;51.146;17.112;2023-04-30T02:42:29;100475.20;;;8.40
68952;BMP180;56000;51.146;17.112;2023-04-30T02:44:57;100477.20;;;8.32
68952;BMP180;56000;51.146;17.112;2023-04-30T02:47:26;100474.80;;;8.30
68952;BMP180;56000;51.146;17.112;2023-04-30T02:49:55;100474.20;;;8.20
68952;BMP180;56000;51.146;17.112;2023-04-30T02:52:24;100474.60;;;8.20
68952;BMP180;56000;51.146;17.112;2023-04-30T02:54:53;100481.60;;;8.10
68952;BMP180;56000;51.146;17.112;2023-04-30T02:57:22;100481.20;;;8.10
68952;BMP180;56000;51.146;17.112;2023-04-30T02:59:50;100485.40;;;8.00
68952;BMP180;56000;51.146;17.112;2023-04-30T03:02:19;100488.60;;;8.00
68952;BMP180;56000;51.146;17.112;2023-04-30T03:04:51;100492.80;;;7.90
68952;BMP180;56000;51.146;17.112;2023-04-30T03:07:20;100492.20;;;7.90
68952;BMP180;56000;51.146;17.112;2023-04-30T03:09:49;100494.80;;;7.90
68952;BMP180;56000;51.146;17.112;2023-04-30T03:12:17;100494.60;;;7.80
68952;BMP180;56000;51.146;17.112;2023-04-30T03:14:46;100493.40;;;7.80
68952;BMP180;56000;51.146;17.112;2023-04-30T03:17:15;100494.80;;;7.78
68952;BMP180;56000;51.146;17.112;2023-04-30T03:19:43;100500.80;;;7.70
68952;BMP180;56000;51.146;17.112;2023-04-30T03:22:12;100506.20;;;7.70
68952;BMP180;56000;51.146;17.112;2023-04-30T03:24:41;100508.00;;;7.62
68952;BMP180;56000;51.146;17.112;2023-04-30T03:27:09;100511.40;;;7.60
68952;BMP180;56000;51.146;17.112;2023-04-30T03:29:38;100518.00;;;7.60
68952;BMP180;56000;51.146;17.112;2023-04-30T03:32:06;100521.60;;;7.50
68952;BMP180;56000;51.146;17.112;2023-04-30T03:34:35;100516.40;;;7.50
68952;BMP180;56000;51.146;17.112;2023-04-30T03:37:04;100525.60;;;7.50
68952;BMP180;56000;51.146;17.112;2023-04-30T03:39:33;100526.20;;;7.40
68952;BMP180;56000;51.146;17.112;2023-04-30T03:42:01;100528.00;;;7.40
68952;BMP180;56000;51.146;17.112;2023-04-30T03:44:30;100533.60;;;7.40
68952;BMP180;56000;51.146;17.112;2023-04-30T03:46:58;100535.00;;;7.40
68952;BMP180;56000;51.146;17.112;2023-04-30T03:49:27;100533.80;;;7.40
68952;BMP180;56000;51.146;17.112;2023-04-30T03:51:56;100539.60;;;7.38
68952;BMP180;56000;51.146;17.112;2023-04-30T03:54:25;100543.20;;;7.38
68952;BMP180;56000;51.146;17.112;2023-04-30T03:56:54;100546.60;;;7.40
68952;BMP180;56000;51.146;17.112;2023-04-30T03:59:24;100553.00;;;7.40
68952;BMP180;56000;51.146;17.112;2023-04-30T04:01:53;100553.80;;;7.40
68952;BMP180;56000;51.146;17.112;2023-04-30T04:04:22;100559.40;;;7.40
68952;BMP180;56000;51.146;17.112;2023-04-30T04:06:51;100567.60;;;7.50
68952;BMP180;56000;51.146;17.112;2023-04-30T04:09:20;100570.60;;;7.50
68952;BMP180;56000;51.146;17.112;2023-04-30T04:11:48;100576.80;;;7.50
68952;BMP180;56000;51.146;17.112;2023-04-30T04:14:17;100579.20;;;7.54
68952;BMP180;56000;51.146;17.112;2023-04-30T04:16:47;100578.20;;;7.60
68952;BMP180;56000;51.146;17.112;2023-04-30T04:19:15;100580.80;;;7.60
68952;BMP180;56000;51.146;17.112;2023-04-30T04:21:45;100586.80;;;7.60
68952;BMP180;56000;51.146;17.112;2023-04-30T04:24:15;100592.00;;;7.66
68952;BMP180;56000;51.146;17.112;2023-04-30T04:26:45;100589.00;;;7.70
68952;BMP180;56000;51.146;17.112;2023-04-30T04:29:15;100595.00;;;7.70
68952;BMP180;56000;51.146;17.112;2023-04-30T04:31:44;100599.40;;;7.80
68952;BMP180;56000;51.146;17.112;2023-04-30T04:34:16;100601.40;;;7.80
68952;BMP180;56000;51.146;17.112;2023-04-30T04:36:46;100599.80;;;7.90
68952;BMP180;56000;51.146;17.112;2023-04-30T04:39:15;100602.60;;;7.96
68952;BMP180;56000;51.146;17.112;2023-04-30T04:41:44;100606.40;;;8.00
68952;BMP180;56000;51.146;17.112;2023-04-30T04:44:14;100601.40;;;8.10
68952;BMP180;56000;51.146;17.112;2023-04-30T04:46:43;100612.00;;;8.20
68952;BMP180;56000;51.146;17.112;2023-04-30T04:49:12;100610.80;;;8.30
68952;BMP180;56000;51.146;17.112;2023-04-30T04:51:41;100615.40;;;8.40
68952;BMP180;56000;51.146;17.112;2023-04-30T04:54:10;100622.00;;;8.50
68952;BMP180;56000;51.146;17.112;2023-04-30T04:56:38;100626.40;;;8.60
68952;BMP180;56000;51.146;17.112;2023-04-30T04:59:07;100628.60;;;8.70
68952;BMP180;56000;51.146;17.112;2023-04-30T05:01:35;100629.60;;;8.80
68952;BMP180;56000;51.146;17.112;2023-04-30T05:04:04;100632.60;;;8.90
68952;BMP180;56000;51.146;17.112;2023-04-30T05:06:33;100638.80;;;8.96
68952;BMP180;56000;51.146;17.112;2023-04-30T05:09:02;100638.80;;;9.06
68952;BMP180;56000;51.146;17.112;2023-04-30T05:11:33;100640.20;;;9.20
68952;BMP180;56000;51.146;17.112;2023-04-30T05:14:02;100643.20;;;9.40
68952;BMP180;56000;51.146;17.112;2023-04-30T05:16:31;100638.80;;;9.50
68952;BMP180;56000;51.146;17.112;2023-04-30T05:19:02;100638.60;;;9.50
68952;BMP180;56000;51.146;17.112;2023-04-30T05:21:30;100641.40;;;9.60
68952;BMP180;56000;51.146;17.112;2023-04-30T05:24:00;100650.00;;;9.64
68952;BMP180;56000;51.146;17.112;2023-04-30T05:26:28;100645.40;;;9.70
68952;BMP180;56000;51.146;17.112;2023-04-30T05:28:57;100648.00;;;9.80
68952;BMP180;56000;51.146;17.112;2023-04-30T05:31:25;100652.60;;;9.90
68952;BMP180;56000;51.146;17.112;2023-04-30T05:33:54;100655.40;;;10.00
68952;BMP180;56000;51.146;17.112;2023-04-30T05:36:23;100657.40;;;10.10
68952;BMP180;56000;51.146;17.112;2023-04-30T05:38:51;100660.00;;;10.26
68952;BMP180;56000;51.146;17.112;2023-04-30T05:41:20;100661.20;;;10.38
68952;BMP180;56000;51.146;17.112;2023-04-30T05:43:49;100664.20;;;10.48
68952;BMP180;56000;51.146;17.112;2023-04-30T05:46:17;100663.40;;;10.50
68952;BMP180;56000;51.146;17.112;2023-04-30T05:48:46;100664.20;;;10.60
68952;BMP180;56000;51.146;17.112;2023-04-30T05:51:15;100663.20;;;10.60
68952;BMP180;56000;51.146;17.112;2023-04-30T05:53:44;100669.60;;;10.70
68952;BMP180;56000;51.146;17.112;2023-04-30T05:56:12;100667.80;;;10.70
68952;BMP180;56000;51.146;17.112;2023-04-30T05:58:41;100672.00;;;10.80
68952;BMP180;56000;51.146;17.112;2023-04-30T06:01:10;100665.00;;;10.90
68952;BMP180;56000;51.146;17.112;2023-04-30T06:03:39;100661.80;;;10.92
68952;BMP180;56000;51.146;17.112;2023-04-30T06:06:08;100664.80;;;11.00
68952;BMP180;56000;51.146;17.112;2023-04-30T06:08:37;100663.40;;;11.00
68952;BMP180;56000;51.146;17.112;2023-04-30T06:11:09;100678.20;;;11.10
68952;BMP180;56000;51.146;17.112;2023-04-30T06:13:38;100680.20;;;11.20
68952;BMP180;56000;51.146;17.112;2023-04-30T06:16:07;100677.80;;;11.20
68952;BMP180;56000;51.146;17.112;2023-04-30T06:18:36;100679.80;;;11.30
68952;BMP180;56000;51.146;17.112;2023-04-30T06:21:05;100681.20;;;11.30
68952;BMP180;56000;51.146;17.112;2023-04-30T06:23:33;100682.80;;;11.36
68952;BMP180;56000;51.146;17.112;2023-04-30T06:26:02;100682.60;;;11.40
68952;BMP180;56000;51.146;17.112;2023-04-30T06:28:31;100681.80;;;11.40
68952;BMP180;56000;51.146;17.112;2023-04-30T06:31:00;100684.60;;;11.40
68952;BMP180;56000;51.146;17.112;2023-04-30T06:33:29;100685.00;;;11.50
68952;BMP180;56000;51.146;17.112;2023-04-30T06:35:57;100692.40;;;11.50
68952;BMP180;56000;51.146;17.112;2023-04-30T06:38:26;100692.60;;;11.60
68952;BMP180;56000;51.146;17.112;2023-04-30T06:40:55;100692.20;;;11.60
68952;BMP180;56000;51.146;17.112;2023-04-30T06:43:23;100696.40;;;11.70
68952;BMP180;56000;51.146;17.112;2023-04-30T06:45:52;100693.80;;;11.72
68952;BMP180;56000;51.146;17.112;2023-04-30T06:48:20;100700.20;;;11.80
68952;BMP180;56000;51.146;17.112;2023-04-30T06:50:50;100699.00;;;11.96
68952;BMP180;56000;51.146;17.112;2023-04-30T06:53:18;100697.40;;;12.00
68952;BMP180;56000;51.146;17.112;2023-04-30T06:55:48;100692.20;;;12.06
68952;BMP180;56000;51.146;17.112;2023-04-30T06:58:17;100701.60;;;12.10
68952;BMP180;56000;51.146;17.112;2023-04-30T07:00:46;100704.60;;;12.10
68952;BMP180;56000;51.146;17.112;2023-04-30T07:03:15;100701.60;;;12.00
68952;BMP180;56000;51.146;17.112;2023-04-30T07:05:44;100704.00;;;12.10
68952;BMP180;56000;51.146;17.112;2023-04-30T07:08:12;100705.20;;;12.10
68952;BMP180;56000;51.146;17.112;2023-04-30T07:10:41;100709.00;;;12.10
68952;BMP180;56000;51.146;17.112;2023-04-30T07:13:10;100714.60;;;12.20
68952;BMP180;56000;51.146;17.112;2023-04-30T07:15:39;100714.60;;;12.30
68952;BMP180;56000;51.146;17.112;2023-04-30T07:18:08;100719.20;;;12.40
68952;BMP180;56000;51.146;17.112;2023-04-30T07:20:37;100721.80;;;12.42
68952;BMP180;56000;51.146;17.112;2023-04-30T07:23:06;100725.00;;;12.40
68952;BMP180;56000;51.146;17.112;2023-04-30T07:25:35;100718.40;;;12.40
68952;BMP180;56000;51.146;17.112;2023-04-30T07:28:03;100729.00;;;12.52
68952;BMP180;56000;51.146;17.112;2023-04-30T07:30:32;100727.80;;;12.60
68952;BMP180;56000;51.146;17.112;2023-04-30T07:33:01;100726.60;;;12.60
68952;BMP180;56000;51.146;17.112;2023-04-30T07:35:30;100724.60;;;12.50
68952;BMP180;56000;51.146;17.112;2023-04-30T07:37:58;100731.60;;;12.52
68952;BMP180;56000;51.146;17.112;2023-04-30T07:40:27;100737.20;;;12.60
68952;BMP180;56000;51.146;17.112;2023-04-30T07:43:04;100736.60;;;12.74
68952;BMP180;56000;51.146;17.112;2023-04-30T07:45:33;100737.60;;;12.80
68952;BMP180;56000;51.146;17.112;2023-04-30T07:48:02;100735.60;;;12.80
68952;BMP180;56000;51.146;17.112;2023-04-30T07:50:32;100733.20;;;13.00
68952;BMP180;56000;51.146;17.112;2023-04-30T07:53:01;100734.00;;;12.94
68952;BMP180;56000;51.146;17.112;2023-04-30T07:55:30;100737.00;;;13.10
68952;BMP180;56000;51.146;17.112;2023-04-30T07:57:58;100738.00;;;13.02
68952;BMP180;56000;51.146;17.112;2023-04-30T08:00:27;100742.00;;;13.10
68952;BMP180;56000;51.146;17.112;2023-04-30T08:02:58;100744.20;;;13.30
68952;BMP180;56000;51.146;17.112;2023-04-30T08:05:27;100741.20;;;13.52
68952;BMP180;56000;51.146;17.112;2023-04-30T08:07:56;100743.20;;;13.80
68952;BMP180;56000;51.146;17.112;2023-04-30T08:10:25;100748.20;;;14.08
68952;BMP180;56000;51.146;17.112;2023-04-30T08:12:54;100749.20;;;14.36
68952;BMP180;56000;51.146;17.112;2023-04-30T08:15:22;100746.80;;;14.40
68952;BMP180;56000;51.146;17.112;2023-04-30T08:17:51;100749.80;;;14.20
68952;BMP180;56000;51.146;17.112;2023-04-30T08:20:20;100757.40;;;14.10
68952;BMP180;56000;51.146;17.112;2023-04-30T08:22:50;100756.40;;;14.20
68952;BMP180;56000;51.146;17.112;2023-04-30T08:25:18;100749.40;;;14.30
68952;BMP180;56000;51.146;17.112;2023-04-30T08:27:47;100751.60;;;14.42
68952;BMP180;56000;51.146;17.112;2023-04-30T08:30:16;100747.00;;;14.74
68952;BMP180;56000;51.146;17.112;2023-04-30T08:32:44;100750.00;;;15.10
68952;BMP180;56000;51.146;17.112;2023-04-30T08:35:13;100756.20;;;15.10
68952;BMP180;56000;51.146;17.112;2023-04-30T08:37:43;100747.80;;;15.20
68952;BMP180;56000;51.146;17.112;2023-04-30T08:40:13;100752.20;;;15.30
68952;BMP180;56000;51.146;17.112;2023-04-30T08:42:49;100748.00;;;15.40
68952;BMP180;56000;51.146;17.112;2023-04-30T08:45:18;100745.20;;;15.70
68952;BMP180;56000;51.146;17.112;2023-04-30T08:47:47;100748.60;;;16.14
68952;BMP180;56000;51.146;17.112;2023-04-30T08:50:16;100750.60;;;16.70
68952;BMP180;56000;51.146;17.112;2023-04-30T08:52:45;100753.40;;;16.70
68952;BMP180;56000;51.146;17.112;2023-04-30T08:55:13;100752.60;;;16.96
68952;BMP180;56000;51.146;17.112;2023-04-30T08:57:42;100756.40;;;17.32
68952;BMP180;56000;51.146;17.112;2023-04-30T09:00:13;100756.20;;;17.50
68952;BMP180;56000;51.146;17.112;2023-04-30T09:02:41;100759.40;;;17.62
68952;BMP180;56000;51.146;17.112;2023-04-30T09:05:12;100760.40;;;17.96
68952;BMP180;56000;51.146;17.112;2023-04-30T09:07:42;100759.60;;;18.50
68952;BMP180;56000;51.146;17.112;2023-04-30T09:10:32;100753.00;;;18.30
68952;BMP180;56000;51.146;17.112;2023-04-30T09:13:03;100757.20;;;18.10
68952;BMP180;56000;51.146;17.112;2023-04-30T09:15:33;100760.40;;;17.60
68952;BMP180;56000;51.146;17.112;2023-04-30T09:18:09;100756.80;;;17.76
68952;BMP180;56000;51.146;17.112;2023-04-30T09:20:53;100768.60;;;17.70
68952;BMP180;56000;51.146;17.112;2023-04-30T09:23:22;100771.40;;;17.40
68952;BMP180;56000;51.146;17.112;2023-04-30T09:25:51;100772.20;;;17.30
68952;BMP180;56000;51.146;17.112;2023-04-30T09:28:21;100775.20;;;17.76
68952;BMP180;56000;51.146;17.112;2023-04-30T09:30:52;100776.00;;;17.88
68952;BMP180;56000;51.146;17.112;2023-04-30T09:33:21;100779.00;;;18.52
68952;BMP180;56000;51.146;17.112;2023-04-30T09:35:49;100783.60;;;19.24
68952;BMP180;56000;51.146;17.112;2023-04-30T09:38:28;100775.00;;;19.76
68952;BMP180;56000;51.146;17.112;2023-04-30T09:40:58;100775.60;;;20.16
68952;BMP180;56000;51.146;17.112;2023-04-30T09:43:27;100775.80;;;20.20
68952;BMP180;56000;51.146;17.112;2023-04-30T09:45:57;100778.80;;;20.74
68952;BMP180;56000;51.146;17.112;2023-04-30T09:48:27;100771.20;;;21.08
68952;BMP180;56000;51.146;17.112;2023-04-30T09:50:56;100777.40;;;21.40
68952;BMP180;56000;51.146;17.112;2023-04-30T09:53:25;100769.20;;;21.60
68952;BMP180;56000;51.146;17.112;2023-04-30T09:55:54;100771.00;;;21.90
68952;BMP180;56000;51.146;17.112;2023-04-30T09:58:26;100773.00;;;21.90
68952;BMP180;56000;51.146;17.112;2023-04-30T10:00:56;100772.40;;;21.96
68952;BMP180;56000;51.146;17.112;2023-04-30T10:03:25;100769.40;;;22.20
68952;BMP180;56000;51.146;17.112;2023-04-30T10:05:54;100768.60;;;22.30
68952;BMP180;56000;51.146;17.112;2023-04-30T10:08:25;100766.00;;;22.60
68952;BMP180;56000;51.146;17.112;2023-04-30T10:10:57;100762.80;;;23.00
68952;BMP180;56000;51.146;17.112;2023-04-30T10:13:30;100766.20;;;23.38
68952;BMP180;56000;51.146;17.112;2023-04-30T10:16:03;100764.00;;;23.80
68952;BMP180;56000;51.146;17.112;2023-04-30T10:18:36;100754.00;;;24.10
68952;BMP180;56000;51.146;17.112;2023-04-30T10:21:07;100749.40;;;24.56
68952;BMP180;56000;51.146;17.112;2023-04-30T10:23:39;100751.40;;;25.20
68952;BMP180;56000;51.146;17.112;2023-04-30T10:26:10;100749.80;;;25.10
68952;BMP180;56000;51.146;17.112;2023-04-30T10:28:40;100761.20;;;25.50
68952;BMP180;56000;51.146;17.112;2023-04-30T10:31:09;100752.60;;;25.60
68952;BMP180;56000;51.146;17.112;2023-04-30T10:33:43;100761.60;;;25.82
68952;BMP180;56000;51.146;17.112;2023-04-30T10:36:23;100760.60;;;26.00
68952;BMP180;56000;51.146;17.112;2023-04-30T10:38:53;100760.00;;;26.30
68952;BMP180;56000;51.146;17.112;2023-04-30T10:41:22;100758.00;;;26.54
68952;BMP180;56000;51.146;17.112;2023-04-30T10:43:56;100756.00;;;26.30
68952;BMP180;56000;51.146;17.112;2023-04-30T10:46:29;100757.80;;;26.50
68952;BMP180;56000;51.146;17.112;2023-04-30T10:48:57;100756.20;;;26.86
68952;BMP180;56000;51.146;17.112;2023-04-30T10:54:11;100750.40;;;27.76
68952;BMP180;56000;51.146;17.112;2023-04-30T10:56:41;100758.20;;;28.30
68952;BMP180;56000;51.146;17.112;2023-04-30T10:59:11;100757.40;;;28.50
68952;BMP180;56000;51.146;17.112;2023-04-30T11:01:56;100753.60;;;28.96
68952;BMP180;56000;51.146;17.112;2023-04-30T11:04:25;100751.60;;;29.50
68952;BMP180;56000;51.146;17.112;2023-04-30T11:07:06;100747.20;;;29.48
68952;BMP180;56000;51.146;17.112;2023-04-30T11:09:39;100749.00;;;29.52
68952;BMP180;56000;51.146;17.112;2023-04-30T11:12:13;100749.60;;;29.50
68952;BMP180;56000;51.146;17.112;2023-04-30T11:14:43;100755.20;;;29.80
68952;BMP180;56000;51.146;17.112;2023-04-30T11:17:20;100754.80;;;30.00
68952;BMP180;56000;51.146;17.112;2023-04-30T11:19:49;100757.00;;;30.10
68952;BMP180;56000;51.146;17.112;2023-04-30T11:22:25;100749.00;;;29.94
68952;BMP180;56000;51.146;17.112;2023-04-30T11:25:01;100748.00;;;30.28
68952;BMP180;56000;51.146;17.112;2023-04-30T11:27:32;100749.80;;;30.96
68952;BMP180;56000;51.146;17.112;2023-04-30T11:30:02;100754.60;;;30.90
68952;BMP180;56000;51.146;17.112;2023-04-30T11:32:36;100752.20;;;30.70
68952;BMP180;56000;51.146;17.112;2023-04-30T11:35:06;100757.20;;;31.02
68952;BMP180;56000;51.146;17.112;2023-04-30T11:37:36;100764.00;;;31.34
68952;BMP180;56000;51.146;17.112;2023-04-30T11:40:07;100765.40;;;31.30
68952;BMP180;56000;51.146;17.112;2023-04-30T11:42:38;100768.40;;;31.62
68952;BMP180;56000;51.146;17.112;2023-04-30T11:45:08;100760.80;;;31.86
68952;BMP180;56000;51.146;17.112;2023-04-30T11:47:45;100758.80;;;32.36
68952;BMP180;56000;51.146;17.112;2023-04-30T11:50:14;100760.20;;;32.80
68952;BMP180;56000;51.146;17.112;2023-04-30T11:52:48;100758.40;;;32.90
68952;BMP180;56000;51.146;17.112;2023-04-30T11:55:18;100763.60;;;33.08
68952;BMP180;56000;51.146;17.112;2023-04-30T11:57:48;100762.00;;;33.14
68952;BMP180;56000;51.146;17.112;2023-04-30T12:00:19;100765.40;;;32.94
68952;BMP180;56000;51.146;17.112;2023-04-30T12:02:48;100763.80;;;33.30
68952;BMP180;56000;51.146;17.112;2023-04-30T12:05:18;100762.00;;;33.60
68952;BMP180;56000;51.146;17.112;2023-04-30T12:07:48;100761.20;;;33.70
68952;BMP180;56000;51.146;17.112;2023-04-30T12:10:20;100767.80;;;33.40
68952;BMP180;56000;51.146;17.112;2023-04-30T12:12:50;100772.00;;;33.10
68952;BMP180;56000;51.146;17.112;2023-04-30T12:15:22;100769.60;;;33.30
68952;BMP180;56000;51.146;17.112;2023-04-30T12:17:54;100777.00;;;33.50
68952;BMP180;56000;51.146;17.112;2023-04-30T12:20:24;100777.20;;;33.56
68952;BMP180;56000;51.146;17.112;2023-04-30T12:22:53;100768.60;;;32.76
68952;BMP180;56000;51.146;17.112;2023-04-30T12:25:23;100771.40;;;33.22
68952;BMP180;56000;51.146;17.112;2023-04-30T12:27:52;100768.20;;;33.60
68952;BMP180;56000;51.146;17.112;2023-04-30T12:30:22;100771.60;;;33.80
68952;BMP180;56000;51.146;17.112;2023-04-30T12:32:52;100768.80;;;33.60
68952;BMP180;56000;51.146;17.112;2023-04-30T12:35:23;100763.20;;;33.72
68952;BMP180;56000;51.146;17.112;2023-04-30T12:37:53;100763.40;;;34.10
68952;BMP180;56000;51.146;17.112;2023-04-30T12:40:28;100767.80;;;34.30
68952;BMP180;56000;51.146;17.112;2023-04-30T12:43:01;100762.00;;;34.40
68952;BMP180;56000;51.146;17.112;2023-04-30T12:45:46;100768.20;;;34.40
68952;BMP180;56000;51.146;17.112;2023-04-30T12:48:15;100763.00;;;34.20
68952;BMP180;56000;51.146;17.112;2023-04-30T12:50:51;100762.60;;;33.68
68952;BMP180;56000;51.146;17.112;2023-04-30T12:53:20;100761.60;;;33.72
68952;BMP180;56000;51.146;17.112;2023-04-30T12:56:06;100768.40;;;33.98
68952;BMP180;56000;51.146;17.112;2023-04-30T12:58:36;100773.60;;;34.30
68952;BMP180;56000;51.146;17.112;2023-04-30T13:01:10;100766.00;;;34.52
68952;BMP180;56000;51.146;17.112;2023-04-30T13:03:40;100763.00;;;34.94
68952;BMP180;56000;51.146;17.112;2023-04-30T13:06:09;100766.40;;;35.04
68952;BMP180;56000;51.146;17.112;2023-04-30T13:08:38;100763.40;;;34.80
68952;BMP180;56000;51.146;17.112;2023-04-30T13:11:25;100763.60;;;34.90
68952;BMP180;56000;51.146;17.112;2023-04-30T13:13:55;100766.00;;;35.00
68952;BMP180;56000;51.146;17.112;2023-04-30T13:16:24;100771.60;;;34.30
68952;BMP180;56000;51.146;17.112;2023-04-30T13:18:53;100764.60;;;34.20
68952;BMP180;56000;51.146;17.112;2023-04-30T13:21:22;100760.60;;;33.92
68952;BMP180;56000;51.146;17.112;2023-04-30T13:23:52;100761.60;;;33.80
68952;BMP180;56000;51.146;17.112;2023-04-30T13:26:23;100762.80;;;34.06
68952;BMP180;56000;51.146;17.112;2023-04-30T13:28:53;100764.60;;;34.40
68952;BMP180;56000;51.146;17.112;2023-04-30T13:31:21;100764.80;;;34.24
68952;BMP180;56000;51.146;17.112;2023-04-30T13:33:50;100763.60;;;33.78
68952;BMP180;56000;51.146;17.112;2023-04-30T13:36:19;100752.80;;;33.70
68952;BMP180;56000;51.146;17.112;2023-04-30T13:38:48;100755.00;;;34.10
68952;BMP180;56000;51.146;17.112;2023-04-30T13:41:16;100758.40;;;33.86
68952;BMP180;56000;51.146;17.112;2023-04-30T13:43:45;100762.00;;;33.60
68952;BMP180;56000;51.146;17.112;2023-04-30T13:46:14;100757.60;;;33.70
68952;BMP180;56000;51.146;17.112;2023-04-30T13:48:43;100761.00;;;34.20
68952;BMP180;56000;51.146;17.112;2023-04-30T13:51:15;100764.20;;;33.72
68952;BMP180;56000;51.146;17.112;2023-04-30T13:53:43;100762.40;;;33.50
68952;BMP180;56000;51.146;17.112;2023-04-30T13:56:12;100762.80;;;33.26
68952;BMP180;56000;51.146;17.112;2023-04-30T13:58:42;100763.20;;;33.30
68952;BMP180;56000;51.146;17.112;2023-04-30T14:01:10;100765.80;;;33.40
68952;BMP180;56000;51.146;17.112;2023-04-30T14:03:40;100763.20;;;33.64
68952;BMP180;56000;51.146;17.112;2023-04-30T14:06:09;100760.80;;;33.52
68952;BMP180;56000;51.146;17.112;2023-04-30T14:08:38;100757.20;;;33.48